LFRD

Dinard-Pleurtuit-Saint-Malo Airport

Dinard/Pleurtuit/Saint-Malo, France
TAF LFRD 201100Z 2012/2112 30015G25KT 9999 BKN015 BECMG 2012/2015 BKN030 BECMG 2018/2021 30010KT BECMG 2100/2103 VRB03KT PROB30 TEMPO 2100/2106 5000 RA BECMG 2106/2109 15010KT TEMPO 2106/2112 5000 RA BKN015
Issued Valid From Valid To
Jul-20 @ 11:00 UTC
(4 hours ago)
Jul-20 @ 12:00 UTC
(3 hours ago)
Jul-21 @ 12:00 UTC
(in 21 hours)
Jul-20 @ 12:00 to Jul-21 @ 12:00
TAF LFRD 201100Z 2012/2112 30015G25KT 9999 BKN015
Wind Visibility Clouds
300° at 15 knots
 Gusting to 25 knots
10,000+ meters
  • Broken at 1,500' AGL
Becoming Jul-20 @ 12:00 to Jul-20 @ 18:00
BECMG 2012/2015 BKN030
Wind Visibility Clouds
300° at 15 knots
 Gusting to 25 knots
10,000+ meters
  • Broken at 3,000' AGL
Becoming Jul-20 @ 18:00 to Jul-21 @ 00:00
BECMG 2018/2021 30010KT
Wind Visibility Clouds
300° at 10 knots 10,000+ meters
  • Broken at 3,000' AGL
Temporary  (Probability 30%) Jul-21 @ 00:00 to Jul-21 @ 06:00
PROB30 TEMPO 2100/2106 5000 RA
Visibility Conditions
5,005 meters
  • Rain
Becoming Jul-21 @ 00:00 to Jul-21 @ 06:00
BECMG 2100/2103 VRB03KT
Wind Visibility Clouds
Variable at 3 knots 10,000+ meters
  • Broken at 3,000' AGL
Temporary Jul-21 @ 06:00 to Jul-21 @ 12:00
TEMPO 2106/2112 5000 RA BKN015
Visibility Clouds Conditions
5,005 meters
  • Broken at 1,500' AGL
  • Rain
Becoming Jul-21 @ 06:00 to Jul-21 @ 12:00
BECMG 2106/2109 15010KT
Wind Visibility Clouds
150° at 10 knots 10,000+ meters
  • Broken at 3,000' AGL
TAF LFRD 201100Z 2012/2112 30015G25KT 9999 BKN015 BECMG 2012/2015 BKN030 BECMG 2018/2021 30010KT BECMG 2100/2103 VRB03KT PROB30 TEMPO 2100/2106 5000 RA BECMG 2106/2109 15010KT TEMPO 2106/2112 5000 RA BKN015
Issued Jul-20 @ 11:00 UTC
(4 hours ago)
Valid From Jul-20 @ 12:00 UTC
(3 hours ago)
Valid To Jul-21 @ 12:00 UTC
(in 21 hours)
Jul-20 @ 12:00 - Jul-21 @ 12:00
Wind Visibility
300° at 15 knots
 Gusting to 25 knots
10,000+ meters
Clouds
  • Broken at 1,500' AGL
Becoming Jul-20 @ 12:00 - Jul-20 @ 18:00
Wind Visibility
300° at 15 knots
 Gusting to 25 knots
10,000+ meters
Clouds
  • Broken at 3,000' AGL
Becoming Jul-20 @ 18:00 - Jul-21 @ 00:00
Wind Visibility
300° at 10 knots 10,000+ meters
Clouds
  • Broken at 3,000' AGL
Probability 30% Temporary Jul-21 @ 00:00 - Jul-21 @ 06:00
Conditions
  • Rain
Becoming Jul-21 @ 00:00 - Jul-21 @ 06:00
Wind Visibility
Variable at 3 knots 10,000+ meters
Clouds
  • Broken at 3,000' AGL
Temporary Jul-21 @ 06:00 - Jul-21 @ 12:00
Clouds
  • Broken at 1,500' AGL
Conditions
  • Rain
Becoming Jul-21 @ 06:00 - Jul-21 @ 12:00
Wind Visibility
150° at 10 knots 10,000+ meters
Clouds
  • Broken at 3,000' AGL